sensor_id;sensor_type;location;lat;lon;timestamp;P1;durP1;ratioP1;P2;durP2;ratioP2
58864;SDS011;45702;52.982;6.658;2023-03-01T00:01:04;143.55;;;61.70;;
58864;SDS011;45702;52.982;6.658;2023-03-01T00:03:30;135.75;;;60.08;;
58864;SDS011;45702;52.982;6.658;2023-03-01T00:05:57;137.98;;;58.47;;
58864;SDS011;45702;52.982;6.658;2023-03-01T00:08:23;138.00;;;59.25;;
58864;SDS011;45702;52.982;6.658;2023-03-01T00:10:49;136.25;;;58.65;;
58864;SDS011;45702;52.982;6.658;2023-03-01T00:13:15;138.05;;;59.45;;
58864;SDS011;45702;52.982;6.658;2023-03-01T00:15:41;132.25;;;54.35;;
58864;SDS011;45702;52.982;6.658;2023-03-01T00:18:08;120.10;;;49.80;;
58864;SDS011;45702;52.982;6.658;2023-03-01T00:20:34;113.60;;;46.25;;
58864;SDS011;45702;52.982;6.658;2023-03-01T00:23:00;116.45;;;43.92;;
58864;SDS011;45702;52.982;6.658;2023-03-01T00:25:27;111.70;;;42.60;;
58864;SDS011;45702;52.982;6.658;2023-03-01T00:27:53;118.82;;;44.47;;
58864;SDS011;45702;52.982;6.658;2023-03-01T00:30:19;120.13;;;43.15;;
58864;SDS011;45702;52.982;6.658;2023-03-01T00:32:45;186.68;;;41.83;;
58864;SDS011;45702;52.982;6.658;2023-03-01T00:35:11;292.35;;;45.67;;
58864;SDS011;45702;52.982;6.658;2023-03-01T00:37:37;304.15;;;44.30;;
58864;SDS011;45702;52.982;6.658;2023-03-01T00:40:03;197.55;;;41.78;;
58864;SDS011;45702;52.982;6.658;2023-03-01T00:42:31;473.47;;;47.00;;
58864;SDS011;45702;52.982;6.658;2023-03-01T00:44:57;508.40;;;48.78;;
58864;SDS011;45702;52.982;6.658;2023-03-01T00:47:23;509.48;;;48.22;;
58864;SDS011;45702;52.982;6.658;2023-03-01T00:49:49;474.67;;;47.17;;
58864;SDS011;45702;52.982;6.658;2023-03-01T00:52:15;329.70;;;42.95;;
58864;SDS011;45702;52.982;6.658;2023-03-01T00:54:41;323.15;;;43.33;;
58864;SDS011;45702;52.982;6.658;2023-03-01T00:57:07;311.60;;;42.72;;
58864;SDS011;45702;52.982;6.658;2023-03-01T00:59:33;345.38;;;43.35;;
58864;SDS011;45702;52.982;6.658;2023-03-01T01:01:59;319.92;;;42.08;;
58864;SDS011;45702;52.982;6.658;2023-03-01T01:04:26;308.60;;;41.88;;
58864;SDS011;45702;52.982;6.658;2023-03-01T01:06:52;237.32;;;40.20;;
58864;SDS011;45702;52.982;6.658;2023-03-01T01:09:18;201.90;;;37.80;;
58864;SDS011;45702;52.982;6.658;2023-03-01T01:11:49;147.40;;;35.58;;
58864;SDS011;45702;52.982;6.658;2023-03-01T01:14:15;130.43;;;36.65;;
58864;SDS011;45702;52.982;6.658;2023-03-01T01:16:42;185.18;;;38.50;;
58864;SDS011;45702;52.982;6.658;2023-03-01T01:19:09;135.85;;;35.88;;
58864;SDS011;45702;52.982;6.658;2023-03-01T01:21:35;149.52;;;35.97;;
58864;SDS011;45702;52.982;6.658;2023-03-01T01:24:02;123.57;;;35.63;;
58864;SDS011;45702;52.982;6.658;2023-03-01T01:26:29;168.02;;;35.92;;
58864;SDS011;45702;52.982;6.658;2023-03-01T01:28:56;192.68;;;36.75;;
58864;SDS011;45702;52.982;6.658;2023-03-01T01:31:23;111.55;;;34.67;;
58864;SDS011;45702;52.982;6.658;2023-03-01T01:33:50;104.38;;;34.70;;
58864;SDS011;45702;52.982;6.658;2023-03-01T01:36:16;184.07;;;37.58;;
58864;SDS011;45702;52.982;6.658;2023-03-01T01:38:42;113.50;;;33.92;;
58864;SDS011;45702;52.982;6.658;2023-03-01T01:41:08;113.95;;;35.83;;
58864;SDS011;45702;52.982;6.658;2023-03-01T01:43:40;95.50;;;35.22;;
58864;SDS011;45702;52.982;6.658;2023-03-01T01:46:10;95.85;;;35.83;;
58864;SDS011;45702;52.982;6.658;2023-03-01T01:48:46;77.63;;;34.45;;
58864;SDS011;45702;52.982;6.658;2023-03-01T01:51:15;83.38;;;35.90;;
58864;SDS011;45702;52.982;6.658;2023-03-01T01:53:44;84.55;;;34.45;;
58864;SDS011;45702;52.982;6.658;2023-03-01T01:56:11;161.50;;;37.43;;
58864;SDS011;45702;52.982;6.658;2023-03-01T01:58:39;87.55;;;34.20;;
58864;SDS011;45702;52.982;6.658;2023-03-01T02:01:07;114.95;;;35.25;;
58864;SDS011;45702;52.982;6.658;2023-03-01T02:03:33;79.32;;;33.10;;
58864;SDS011;45702;52.982;6.658;2023-03-01T02:08:47;83.63;;;33.55;;
58864;SDS011;45702;52.982;6.658;2023-03-01T02:11:15;73.75;;;32.47;;
58864;SDS011;45702;52.982;6.658;2023-03-01T02:13:41;73.82;;;32.60;;
58864;SDS011;45702;52.982;6.658;2023-03-01T02:16:08;74.93;;;31.52;;
58864;SDS011;45702;52.982;6.658;2023-03-01T02:18:35;68.82;;;31.00;;
58864;SDS011;45702;52.982;6.658;2023-03-01T02:23:45;69.28;;;31.60;;
58864;SDS011;45702;52.982;6.658;2023-03-01T02:26:23;69.75;;;31.55;;
58864;SDS011;45702;52.982;6.658;2023-03-01T02:28:51;68.40;;;31.20;;
58864;SDS011;45702;52.982;6.658;2023-03-01T02:31:18;70.43;;;31.42;;
58864;SDS011;45702;52.982;6.658;2023-03-01T02:34:03;68.32;;;31.70;;
58864;SDS011;45702;52.982;6.658;2023-03-01T02:36:38;66.15;;;30.95;;
58864;SDS011;45702;52.982;6.658;2023-03-01T02:39:06;67.53;;;31.05;;
58864;SDS011;45702;52.982;6.658;2023-03-01T02:41:34;68.93;;;31.10;;
58864;SDS011;45702;52.982;6.658;2023-03-01T02:44:01;68.45;;;31.95;;
58864;SDS011;45702;52.982;6.658;2023-03-01T02:46:28;70.53;;;32.08;;
58864;SDS011;45702;52.982;6.658;2023-03-01T02:48:55;59.60;;;28.33;;
58864;SDS011;45702;52.982;6.658;2023-03-01T02:54:23;61.40;;;29.52;;
58864;SDS011;45702;52.982;6.658;2023-03-01T02:56:50;61.53;;;29.80;;
58864;SDS011;45702;52.982;6.658;2023-03-01T02:59:18;66.45;;;30.33;;
58864;SDS011;45702;52.982;6.658;2023-03-01T03:01:45;63.00;;;29.63;;
58864;SDS011;45702;52.982;6.658;2023-03-01T03:04:13;64.95;;;30.55;;
58864;SDS011;45702;52.982;6.658;2023-03-01T03:06:42;63.20;;;30.55;;
58864;SDS011;45702;52.982;6.658;2023-03-01T03:09:08;60.70;;;29.98;;
58864;SDS011;45702;52.982;6.658;2023-03-01T03:11:35;60.60;;;29.17;;
58864;SDS011;45702;52.982;6.658;2023-03-01T03:14:02;53.25;;;26.85;;
58864;SDS011;45702;52.982;6.658;2023-03-01T03:16:28;57.50;;;28.48;;
58864;SDS011;45702;52.982;6.658;2023-03-01T03:18:54;58.85;;;29.25;;
58864;SDS011;45702;52.982;6.658;2023-03-01T03:21:33;53.38;;;26.75;;
58864;SDS011;45702;52.982;6.658;2023-03-01T03:23:59;53.50;;;26.92;;
58864;SDS011;45702;52.982;6.658;2023-03-01T03:26:25;57.85;;;28.70;;
58864;SDS011;45702;52.982;6.658;2023-03-01T03:28:51;55.25;;;28.05;;
58864;SDS011;45702;52.982;6.658;2023-03-01T03:31:17;60.15;;;29.42;;
58864;SDS011;45702;52.982;6.658;2023-03-01T03:33:43;62.45;;;29.92;;
58864;SDS011;45702;52.982;6.658;2023-03-01T03:36:09;62.85;;;28.60;;
58864;SDS011;45702;52.982;6.658;2023-03-01T03:38:38;59.33;;;28.80;;
58864;SDS011;45702;52.982;6.658;2023-03-01T03:41:06;61.30;;;29.10;;
58864;SDS011;45702;52.982;6.658;2023-03-01T03:43:33;57.42;;;29.02;;
58864;SDS011;45702;52.982;6.658;2023-03-01T03:45:59;64.75;;;30.52;;
58864;SDS011;45702;52.982;6.658;2023-03-01T03:48:25;58.55;;;29.25;;
58864;SDS011;45702;52.982;6.658;2023-03-01T03:50:52;61.35;;;29.52;;
58864;SDS011;45702;52.982;6.658;2023-03-01T03:53:20;60.67;;;28.70;;
58864;SDS011;45702;52.982;6.658;2023-03-01T03:55:46;62.55;;;29.50;;
58864;SDS011;45702;52.982;6.658;2023-03-01T03:58:14;62.45;;;29.60;;
58864;SDS011;45702;52.982;6.658;2023-03-01T04:00:42;59.42;;;27.92;;
58864;SDS011;45702;52.982;6.658;2023-03-01T04:03:09;59.17;;;28.65;;
58864;SDS011;45702;52.982;6.658;2023-03-01T04:05:35;58.97;;;29.10;;
58864;SDS011;45702;52.982;6.658;2023-03-01T04:08:02;55.47;;;27.45;;
58864;SDS011;45702;52.982;6.658;2023-03-01T04:10:29;53.83;;;27.80;;
58864;SDS011;45702;52.982;6.658;2023-03-01T04:12:55;52.83;;;27.27;;
58864;SDS011;45702;52.982;6.658;2023-03-01T04:15:22;54.58;;;27.13;;
58864;SDS011;45702;52.982;6.658;2023-03-01T04:17:49;53.97;;;26.23;;
58864;SDS011;45702;52.982;6.658;2023-03-01T04:20:18;55.92;;;27.55;;
58864;SDS011;45702;52.982;6.658;2023-03-01T04:22:56;57.15;;;27.23;;
58864;SDS011;45702;52.982;6.658;2023-03-01T04:25:22;57.78;;;28.70;;
58864;SDS011;45702;52.982;6.658;2023-03-01T04:27:49;55.58;;;27.90;;
58864;SDS011;45702;52.982;6.658;2023-03-01T04:30:15;57.90;;;27.73;;
58864;SDS011;45702;52.982;6.658;2023-03-01T04:32:41;57.10;;;27.98;;
58864;SDS011;45702;52.982;6.658;2023-03-01T04:35:07;54.75;;;27.20;;
58864;SDS011;45702;52.982;6.658;2023-03-01T04:37:33;58.40;;;28.10;;
58864;SDS011;45702;52.982;6.658;2023-03-01T04:40:00;57.00;;;27.90;;
58864;SDS011;45702;52.982;6.658;2023-03-01T04:42:33;55.30;;;27.98;;
58864;SDS011;45702;52.982;6.658;2023-03-01T04:44:59;59.25;;;28.67;;
58864;SDS011;45702;52.982;6.658;2023-03-01T04:47:25;57.20;;;27.42;;
58864;SDS011;45702;52.982;6.658;2023-03-01T04:49:51;57.83;;;28.48;;
58864;SDS011;45702;52.982;6.658;2023-03-01T04:52:17;55.25;;;28.30;;
58864;SDS011;45702;52.982;6.658;2023-03-01T04:54:43;56.47;;;28.30;;
58864;SDS011;45702;52.982;6.658;2023-03-01T04:57:09;56.38;;;27.95;;
58864;SDS011;45702;52.982;6.658;2023-03-01T04:59:35;57.88;;;28.27;;
58864;SDS011;45702;52.982;6.658;2023-03-01T05:02:01;56.75;;;28.77;;
58864;SDS011;45702;52.982;6.658;2023-03-01T05:04:27;56.80;;;27.95;;
58864;SDS011;45702;52.982;6.658;2023-03-01T05:06:53;56.78;;;28.23;;
58864;SDS011;45702;52.982;6.658;2023-03-01T05:09:19;56.78;;;27.75;;
58864;SDS011;45702;52.982;6.658;2023-03-01T05:11:45;56.90;;;27.77;;
58864;SDS011;45702;52.982;6.658;2023-03-01T05:14:11;57.13;;;27.80;;
58864;SDS011;45702;52.982;6.658;2023-03-01T05:16:37;55.83;;;27.60;;
58864;SDS011;45702;52.982;6.658;2023-03-01T05:19:03;59.55;;;29.13;;
58864;SDS011;45702;52.982;6.658;2023-03-01T05:21:37;56.78;;;27.40;;
58864;SDS011;45702;52.982;6.658;2023-03-01T05:24:23;56.92;;;28.00;;
58864;SDS011;45702;52.982;6.658;2023-03-01T05:26:49;56.25;;;28.33;;
58864;SDS011;45702;52.982;6.658;2023-03-01T05:29:19;51.90;;;26.95;;
58864;SDS011;45702;52.982;6.658;2023-03-01T05:31:59;53.75;;;27.48;;
58864;SDS011;45702;52.982;6.658;2023-03-01T05:34:33;56.63;;;27.70;;
58864;SDS011;45702;52.982;6.658;2023-03-01T05:37:03;54.13;;;28.15;;
58864;SDS011;45702;52.982;6.658;2023-03-01T05:39:30;56.00;;;27.52;;
58864;SDS011;45702;52.982;6.658;2023-03-01T05:41:57;52.53;;;27.40;;
58864;SDS011;45702;52.982;6.658;2023-03-01T05:44:24;52.75;;;27.13;;
58864;SDS011;45702;52.982;6.658;2023-03-01T05:46:50;53.83;;;27.45;;
58864;SDS011;45702;52.982;6.658;2023-03-01T05:49:16;52.38;;;26.08;;
58864;SDS011;45702;52.982;6.658;2023-03-01T05:51:43;53.65;;;26.70;;
58864;SDS011;45702;52.982;6.658;2023-03-01T05:54:12;55.92;;;27.70;;
58864;SDS011;45702;52.982;6.658;2023-03-01T05:56:38;55.63;;;27.67;;
58864;SDS011;45702;52.982;6.658;2023-03-01T05:59:04;54.65;;;27.75;;
58864;SDS011;45702;52.982;6.658;2023-03-01T06:01:34;54.38;;;27.75;;
58864;SDS011;45702;52.982;6.658;2023-03-01T06:04:00;54.63;;;28.23;;
58864;SDS011;45702;52.982;6.658;2023-03-01T06:06:27;60.88;;;28.42;;
58864;SDS011;45702;52.982;6.658;2023-03-01T06:08:54;56.10;;;28.02;;
58864;SDS011;45702;52.982;6.658;2023-03-01T06:11:20;56.22;;;28.10;;
58864;SDS011;45702;52.982;6.658;2023-03-01T06:13:46;61.00;;;30.10;;
58864;SDS011;45702;52.982;6.658;2023-03-01T06:16:12;57.13;;;27.45;;
58864;SDS011;45702;52.982;6.658;2023-03-01T06:18:39;58.22;;;28.63;;
58864;SDS011;45702;52.982;6.658;2023-03-01T06:21:06;55.63;;;28.13;;
58864;SDS011;45702;52.982;6.658;2023-03-01T06:23:32;59.92;;;29.05;;
58864;SDS011;45702;52.982;6.658;2023-03-01T06:25:59;58.90;;;29.38;;
58864;SDS011;45702;52.982;6.658;2023-03-01T06:28:25;62.15;;;29.75;;
58864;SDS011;45702;52.982;6.658;2023-03-01T06:30:51;55.75;;;28.33;;
58864;SDS011;45702;52.982;6.658;2023-03-01T06:33:18;56.83;;;28.27;;
58864;SDS011;45702;52.982;6.658;2023-03-01T06:35:45;53.25;;;27.45;;
58864;SDS011;45702;52.982;6.658;2023-03-01T06:38:11;58.88;;;29.27;;
58864;SDS011;45702;52.982;6.658;2023-03-01T06:40:40;58.03;;;28.50;;
58864;SDS011;45702;52.982;6.658;2023-03-01T06:43:06;54.85;;;27.35;;
58864;SDS011;45702;52.982;6.658;2023-03-01T06:45:32;59.92;;;29.20;;
58864;SDS011;45702;52.982;6.658;2023-03-01T06:48:04;64.95;;;31.23;;
58864;SDS011;45702;52.982;6.658;2023-03-01T06:50:31;60.03;;;29.75;;
58864;SDS011;45702;52.982;6.658;2023-03-01T06:52:57;56.90;;;28.38;;
58864;SDS011;45702;52.982;6.658;2023-03-01T06:55:23;58.92;;;28.77;;
58864;SDS011;45702;52.982;6.658;2023-03-01T06:57:53;59.47;;;29.17;;
58864;SDS011;45702;52.982;6.658;2023-03-01T07:00:20;59.88;;;29.33;;
58864;SDS011;45702;52.982;6.658;2023-03-01T07:02:46;58.00;;;29.30;;
58864;SDS011;45702;52.982;6.658;2023-03-01T07:05:12;66.20;;;31.35;;
58864;SDS011;45702;52.982;6.658;2023-03-01T07:07:38;67.90;;;31.05;;
58864;SDS011;45702;52.982;6.658;2023-03-01T07:10:04;64.85;;;30.60;;
58864;SDS011;45702;52.982;6.658;2023-03-01T07:12:30;64.82;;;30.77;;
58864;SDS011;45702;52.982;6.658;2023-03-01T07:14:56;61.45;;;29.70;;
58864;SDS011;45702;52.982;6.658;2023-03-01T07:17:22;61.90;;;29.55;;
58864;SDS011;45702;52.982;6.658;2023-03-01T07:19:48;64.25;;;30.23;;
58864;SDS011;45702;52.982;6.658;2023-03-01T07:22:15;61.85;;;30.33;;
58864;SDS011;45702;52.982;6.658;2023-03-01T07:24:41;62.70;;;30.30;;
58864;SDS011;45702;52.982;6.658;2023-03-01T07:27:07;65.18;;;31.02;;
58864;SDS011;45702;52.982;6.658;2023-03-01T07:29:34;64.93;;;30.25;;
58864;SDS011;45702;52.982;6.658;2023-03-01T07:32:02;78.13;;;34.03;;
58864;SDS011;45702;52.982;6.658;2023-03-01T07:34:28;73.60;;;33.67;;
58864;SDS011;45702;52.982;6.658;2023-03-01T07:36:54;77.45;;;35.95;;
58864;SDS011;45702;52.982;6.658;2023-03-01T07:39:20;72.40;;;34.63;;
58864;SDS011;45702;52.982;6.658;2023-03-01T07:41:48;81.90;;;35.72;;
58864;SDS011;45702;52.982;6.658;2023-03-01T07:44:14;73.35;;;34.60;;
58864;SDS011;45702;52.982;6.658;2023-03-01T07:46:41;77.03;;;35.03;;
58864;SDS011;45702;52.982;6.658;2023-03-01T07:49:08;71.50;;;34.08;;
58864;SDS011;45702;52.982;6.658;2023-03-01T07:51:34;73.03;;;34.65;;
58864;SDS011;45702;52.982;6.658;2023-03-01T07:54:00;76.63;;;35.55;;
58864;SDS011;45702;52.982;6.658;2023-03-01T07:56:26;82.60;;;37.80;;
58864;SDS011;45702;52.982;6.658;2023-03-01T07:58:52;88.28;;;38.50;;
58864;SDS011;45702;52.982;6.658;2023-03-01T08:01:19;87.63;;;37.92;;
58864;SDS011;45702;52.982;6.658;2023-03-01T08:03:46;86.90;;;39.85;;
58864;SDS011;45702;52.982;6.658;2023-03-01T08:06:12;97.85;;;41.67;;
58864;SDS011;45702;52.982;6.658;2023-03-01T08:08:39;105.03;;;43.53;;
58864;SDS011;45702;52.982;6.658;2023-03-01T08:11:06;111.03;;;44.08;;
58864;SDS011;45702;52.982;6.658;2023-03-01T08:13:32;106.75;;;44.08;;
58864;SDS011;45702;52.982;6.658;2023-03-01T08:16:10;109.47;;;44.05;;
58864;SDS011;45702;52.982;6.658;2023-03-01T08:18:36;109.88;;;44.53;;
58864;SDS011;45702;52.982;6.658;2023-03-01T08:21:03;108.28;;;44.35;;
58864;SDS011;45702;52.982;6.658;2023-03-01T08:23:29;118.93;;;46.83;;
58864;SDS011;45702;52.982;6.658;2023-03-01T08:26:03;121.35;;;47.75;;
58864;SDS011;45702;52.982;6.658;2023-03-01T08:28:30;130.52;;;48.05;;
58864;SDS011;45702;52.982;6.658;2023-03-01T08:30:56;115.03;;;46.63;;
58864;SDS011;45702;52.982;6.658;2023-03-01T08:33:22;131.10;;;50.90;;
58864;SDS011;45702;52.982;6.658;2023-03-01T08:35:49;134.50;;;50.47;;
58864;SDS011;45702;52.982;6.658;2023-03-01T08:38:15;137.98;;;51.97;;
58864;SDS011;45702;52.982;6.658;2023-03-01T08:40:41;148.50;;;53.63;;
58864;SDS011;45702;52.982;6.658;2023-03-01T08:43:08;159.70;;;55.30;;
58864;SDS011;45702;52.982;6.658;2023-03-01T08:45:36;144.00;;;53.38;;
58864;SDS011;45702;52.982;6.658;2023-03-01T08:48:02;173.25;;;57.33;;
58864;SDS011;45702;52.982;6.658;2023-03-01T08:50:28;154.25;;;54.25;;
58864;SDS011;45702;52.982;6.658;2023-03-01T08:52:54;151.70;;;54.58;;
58864;SDS011;45702;52.982;6.658;2023-03-01T08:55:20;148.32;;;54.03;;
58864;SDS011;45702;52.982;6.658;2023-03-01T08:57:46;159.88;;;56.00;;
58864;SDS011;45702;52.982;6.658;2023-03-01T09:00:12;156.55;;;56.35;;
58864;SDS011;45702;52.982;6.658;2023-03-01T09:02:39;145.70;;;53.85;;
58864;SDS011;45702;52.982;6.658;2023-03-01T09:05:06;154.80;;;54.88;;
58864;SDS011;45702;52.982;6.658;2023-03-01T09:07:32;138.95;;;51.22;;
58864;SDS011;45702;52.982;6.658;2023-03-01T09:09:58;143.45;;;50.65;;
58864;SDS011;45702;52.982;6.658;2023-03-01T09:12:24;132.25;;;50.22;;
58864;SDS011;45702;52.982;6.658;2023-03-01T09:14:50;141.27;;;52.90;;
58864;SDS011;45702;52.982;6.658;2023-03-01T09:17:16;131.70;;;51.03;;
58864;SDS011;45702;52.982;6.658;2023-03-01T09:19:42;141.43;;;51.53;;
58864;SDS011;45702;52.982;6.658;2023-03-01T09:22:08;130.02;;;50.90;;
58864;SDS011;45702;52.982;6.658;2023-03-01T09:24:34;129.77;;;50.92;;
58864;SDS011;45702;52.982;6.658;2023-03-01T09:27:01;134.70;;;51.97;;
58864;SDS011;45702;52.982;6.658;2023-03-01T09:29:28;134.00;;;52.60;;
58864;SDS011;45702;52.982;6.658;2023-03-01T09:31:54;128.73;;;52.90;;
58864;SDS011;45702;52.982;6.658;2023-03-01T09:34:21;136.60;;;52.70;;
58864;SDS011;45702;52.982;6.658;2023-03-01T09:36:48;137.75;;;52.92;;
58864;SDS011;45702;52.982;6.658;2023-03-01T09:39:15;133.10;;;51.15;;
58864;SDS011;45702;52.982;6.658;2023-03-01T09:41:47;117.65;;;46.53;;
58864;SDS011;45702;52.982;6.658;2023-03-01T09:44:23;120.68;;;47.78;;
58864;SDS011;45702;52.982;6.658;2023-03-01T09:46:51;108.43;;;45.20;;
58864;SDS011;45702;52.982;6.658;2023-03-01T09:49:19;97.28;;;43.28;;
58864;SDS011;45702;52.982;6.658;2023-03-01T09:51:56;111.70;;;44.70;;
58864;SDS011;45702;52.982;6.658;2023-03-01T09:54:23;96.13;;;41.92;;
58864;SDS011;45702;52.982;6.658;2023-03-01T09:57:01;88.97;;;39.47;;
58864;SDS011;45702;52.982;6.658;2023-03-01T10:02:25;94.70;;;41.65;;
58864;SDS011;45702;52.982;6.658;2023-03-01T10:10:05;76.93;;;34.10;;
58864;SDS011;45702;52.982;6.658;2023-03-01T10:12:35;75.85;;;32.58;;
58864;SDS011;45702;52.982;6.658;2023-03-01T10:15:19;80.40;;;35.67;;
58864;SDS011;45702;52.982;6.658;2023-03-01T10:22:45;75.35;;;33.60;;
58864;SDS011;45702;52.982;6.658;2023-03-01T10:25:15;72.70;;;31.63;;
58864;SDS011;45702;52.982;6.658;2023-03-01T10:27:53;63.00;;;28.70;;
58864;SDS011;45702;52.982;6.658;2023-03-01T10:32:46;57.15;;;27.33;;
58864;SDS011;45702;52.982;6.658;2023-03-01T10:35:18;62.58;;;27.85;;
58864;SDS011;45702;52.982;6.658;2023-03-01T10:38:04;64.00;;;27.10;;
58864;SDS011;45702;52.982;6.658;2023-03-01T10:40:31;55.00;;;24.10;;
58864;SDS011;45702;52.982;6.658;2023-03-01T10:42:58;50.22;;;22.45;;
58864;SDS011;45702;52.982;6.658;2023-03-01T10:45:38;49.83;;;21.50;;
58864;SDS011;45702;52.982;6.658;2023-03-01T10:48:13;43.83;;;20.00;;
58864;SDS011;45702;52.982;6.658;2023-03-01T10:50:44;37.55;;;18.48;;
58864;SDS011;45702;52.982;6.658;2023-03-01T10:53:24;42.33;;;21.20;;
58864;SDS011;45702;52.982;6.658;2023-03-01T10:56:05;44.60;;;21.10;;
58864;SDS011;45702;52.982;6.658;2023-03-01T10:58:32;47.45;;;22.05;;
58864;SDS011;45702;52.982;6.658;2023-03-01T11:01:00;46.03;;;22.63;;
58864;SDS011;45702;52.982;6.658;2023-03-01T11:03:28;49.25;;;23.50;;
58864;SDS011;45702;52.982;6.658;2023-03-01T11:05:59;53.47;;;23.73;;
58864;SDS011;45702;52.982;6.658;2023-03-01T11:11:31;50.38;;;24.65;;
58864;SDS011;45702;52.982;6.658;2023-03-01T11:14:06;52.75;;;25.05;;
58864;SDS011;45702;52.982;6.658;2023-03-01T11:21:34;47.40;;;24.05;;
58864;SDS011;45702;52.982;6.658;2023-03-01T11:24:02;51.60;;;25.50;;
58864;SDS011;45702;52.982;6.658;2023-03-01T11:26:29;56.28;;;26.52;;
58864;SDS011;45702;52.982;6.658;2023-03-01T11:28:58;55.35;;;26.05;;
58864;SDS011;45702;52.982;6.658;2023-03-01T11:31:26;53.70;;;27.20;;
58864;SDS011;45702;52.982;6.658;2023-03-01T11:34:12;50.05;;;25.13;;
58864;SDS011;45702;52.982;6.658;2023-03-01T11:39:28;52.67;;;26.55;;
58864;SDS011;45702;52.982;6.658;2023-03-01T11:42:12;50.10;;;26.00;;
58864;SDS011;45702;52.982;6.658;2023-03-01T11:44:39;56.65;;;25.92;;
58864;SDS011;45702;52.982;6.658;2023-03-01T12:00:36;44.53;;;24.15;;
58864;SDS011;45702;52.982;6.658;2023-03-01T12:10:23;50.10;;;25.90;;
58864;SDS011;45702;52.982;6.658;2023-03-01T12:12:58;43.83;;;24.80;;
58864;SDS011;45702;52.982;6.658;2023-03-01T12:20:59;39.60;;;21.25;;
58864;SDS011;45702;52.982;6.658;2023-03-01T12:23:35;37.75;;;20.95;;
58864;SDS011;45702;52.982;6.658;2023-03-01T12:31:32;43.33;;;23.40;;
58864;SDS011;45702;52.982;6.658;2023-03-01T12:36:37;41.75;;;21.48;;
58864;SDS011;45702;52.982;6.658;2023-03-01T12:44:23;38.40;;;21.17;;
58864;SDS011;45702;52.982;6.658;2023-03-01T12:49:31;37.05;;;21.73;;
58864;SDS011;45702;52.982;6.658;2023-03-01T12:52:00;37.97;;;20.95;;
58864;SDS011;45702;52.982;6.658;2023-03-01T12:56:53;36.20;;;20.77;;
58864;SDS011;45702;52.982;6.658;2023-03-01T12:59:27;35.70;;;20.67;;
58864;SDS011;45702;52.982;6.658;2023-03-01T13:01:58;35.05;;;20.35;;
58864;SDS011;45702;52.982;6.658;2023-03-01T13:09:45;38.30;;;21.77;;
58864;SDS011;45702;52.982;6.658;2023-03-01T13:14:59;42.47;;;23.25;;
58864;SDS011;45702;52.982;6.658;2023-03-01T13:17:29;43.80;;;23.95;;
58864;SDS011;45702;52.982;6.658;2023-03-01T13:19:59;38.45;;;22.88;;
58864;SDS011;45702;52.982;6.658;2023-03-01T13:22:27;40.88;;;22.85;;
58864;SDS011;45702;52.982;6.658;2023-03-01T13:27:23;42.08;;;22.90;;
58864;SDS011;45702;52.982;6.658;2023-03-01T13:29:58;42.47;;;22.63;;
58864;SDS011;45702;52.982;6.658;2023-03-01T13:32:31;42.22;;;22.77;;
58864;SDS011;45702;52.982;6.658;2023-03-01T13:34:59;39.90;;;22.92;;
58864;SDS011;45702;52.982;6.658;2023-03-01T13:37:30;42.72;;;22.85;;
58864;SDS011;45702;52.982;6.658;2023-03-01T13:39:57;45.35;;;22.77;;
58864;SDS011;45702;52.982;6.658;2023-03-01T13:44:53;37.58;;;20.98;;
58864;SDS011;45702;52.982;6.658;2023-03-01T13:47:19;38.10;;;19.95;;
58864;SDS011;45702;52.982;6.658;2023-03-01T13:49:46;37.17;;;20.27;;
58864;SDS011;45702;52.982;6.658;2023-03-01T13:52:56;43.30;;;21.67;;
58864;SDS011;45702;52.982;6.658;2023-03-01T13:55:04;36.00;;;18.98;;
58864;SDS011;45702;52.982;6.658;2023-03-01T13:57:38;33.67;;;18.33;;
58864;SDS011;45702;52.982;6.658;2023-03-01T14:00:07;37.17;;;18.90;;
58864;SDS011;45702;52.982;6.658;2023-03-01T14:02:33;39.40;;;19.95;;
58864;SDS011;45702;52.982;6.658;2023-03-01T14:05:01;35.25;;;18.88;;
58864;SDS011;45702;52.982;6.658;2023-03-01T14:07:27;38.00;;;19.40;;
58864;SDS011;45702;52.982;6.658;2023-03-01T14:09:58;36.03;;;19.15;;
58864;SDS011;45702;52.982;6.658;2023-03-01T14:20:09;36.22;;;20.00;;
58864;SDS011;45702;52.982;6.658;2023-03-01T14:22:36;40.45;;;20.60;;
58864;SDS011;45702;52.982;6.658;2023-03-01T14:25:14;32.33;;;17.90;;
58864;SDS011;45702;52.982;6.658;2023-03-01T14:27:42;37.88;;;19.55;;
58864;SDS011;45702;52.982;6.658;2023-03-01T14:30:19;35.65;;;18.90;;
58864;SDS011;45702;52.982;6.658;2023-03-01T14:32:52;33.30;;;17.90;;
58864;SDS011;45702;52.982;6.658;2023-03-01T14:35:22;33.47;;;17.85;;
58864;SDS011;45702;52.982;6.658;2023-03-01T14:37:49;35.25;;;17.52;;
58864;SDS011;45702;52.982;6.658;2023-03-01T14:40:26;37.85;;;18.77;;
58864;SDS011;45702;52.982;6.658;2023-03-01T14:42:53;32.65;;;17.77;;
58864;SDS011;45702;52.982;6.658;2023-03-01T14:45:19;34.65;;;17.73;;
58864;SDS011;45702;52.982;6.658;2023-03-01T14:47:45;30.77;;;17.30;;
58864;SDS011;45702;52.982;6.658;2023-03-01T14:52:48;33.72;;;17.80;;
58864;SDS011;45702;52.982;6.658;2023-03-01T14:55:18;36.22;;;18.55;;
58864;SDS011;45702;52.982;6.658;2023-03-01T14:57:46;36.70;;;19.83;;
58864;SDS011;45702;52.982;6.658;2023-03-01T15:00:17;34.13;;;18.80;;
58864;SDS011;45702;52.982;6.658;2023-03-01T15:02:45;33.53;;;17.88;;
58864;SDS011;45702;52.982;6.658;2023-03-01T15:05:13;37.58;;;19.40;;
58864;SDS011;45702;52.982;6.658;2023-03-01T15:07:40;38.00;;;19.23;;
58864;SDS011;45702;52.982;6.658;2023-03-01T15:10:14;37.40;;;19.20;;
58864;SDS011;45702;52.982;6.658;2023-03-01T15:12:41;36.50;;;19.52;;
58864;SDS011;45702;52.982;6.658;2023-03-01T15:15:53;39.67;;;20.05;;
58864;SDS011;45702;52.982;6.658;2023-03-01T15:18:02;37.67;;;19.27;;
58864;SDS011;45702;52.982;6.658;2023-03-01T15:20:28;36.85;;;19.30;;
58864;SDS011;45702;52.982;6.658;2023-03-01T15:23:00;37.05;;;19.00;;
58864;SDS011;45702;52.982;6.658;2023-03-01T15:25:27;42.60;;;18.75;;
58864;SDS011;45702;52.982;6.658;2023-03-01T15:27:54;38.03;;;20.00;;
58864;SDS011;45702;52.982;6.658;2023-03-01T15:30:26;38.67;;;19.77;;
58864;SDS011;45702;52.982;6.658;2023-03-01T15:35:44;42.08;;;20.77;;
58864;SDS011;45702;52.982;6.658;2023-03-01T15:38:32;36.55;;;20.23;;
58864;SDS011;45702;52.982;6.658;2023-03-01T15:41:01;43.00;;;20.95;;
58864;SDS011;45702;52.982;6.658;2023-03-01T15:43:41;34.95;;;19.60;;
58864;SDS011;45702;52.982;6.658;2023-03-01T15:48:50;37.92;;;20.70;;
58864;SDS011;45702;52.982;6.658;2023-03-01T15:51:17;38.60;;;20.08;;
58864;SDS011;45702;52.982;6.658;2023-03-01T15:53:48;40.72;;;20.77;;
58864;SDS011;45702;52.982;6.658;2023-03-01T15:56:15;40.00;;;21.63;;
58864;SDS011;45702;52.982;6.658;2023-03-01T15:58:41;40.35;;;21.42;;
58864;SDS011;45702;52.982;6.658;2023-03-01T16:01:14;45.17;;;22.20;;
58864;SDS011;45702;52.982;6.658;2023-03-01T16:03:41;44.78;;;23.63;;
58864;SDS011;45702;52.982;6.658;2023-03-01T16:06:11;42.65;;;22.92;;
58864;SDS011;45702;52.982;6.658;2023-03-01T16:08:37;43.58;;;23.95;;
58864;SDS011;45702;52.982;6.658;2023-03-01T16:11:04;42.33;;;23.00;;
58864;SDS011;45702;52.982;6.658;2023-03-01T16:13:31;43.33;;;23.35;;